Time;durP1;ratioP1;P1;durP2;ratioP2;P2;SDS_P1;SDS_P2;PMS_P1;PMS_P2;Temp;Humidity;BMP_temperature;BMP_pressure;BME280_temperature;BME280_humidity;BME280_pressure;Samples;Min_cycle;Max_cycle;Signal;HPM_P1;HPM_P2
2022/06/09 00:00:36;;;;;;;4.75;1.35;;;14.50;99.90;;;;;;4906926;29;20135;-71
2022/06/09 00:03:06;;;;;;;2.13;1.00;;;14.40;99.90;;;;;;4906479;29;20056;-71
2022/06/09 00:05:33;;;;;;;3.05;1.00;;;14.40;99.90;;;;;;4906400;29;20080;-71
2022/06/09 00:08:03;;;;;;;2.35;0.85;;;14.30;99.90;;;;;;4906047;29;20087;-71
2022/06/09 00:10:32;;;;;;;2.42;0.90;;;14.30;99.90;;;;;;4907537;29;20424;-71
2022/06/09 00:12:58;;;;;;;4.22;1.05;;;14.20;99.90;;;;;;4888707;29;20129;-71
2022/06/09 00:15:27;;;;;;;2.75;1.00;;;14.10;99.90;;;;;;4905015;29;20087;-71
2022/06/09 00:17:54;;;;;;;3.55;1.30;;;14.10;99.90;;;;;;4902229;29;20048;-71
2022/06/09 00:20:20;;;;;;;6.53;1.60;;;14.00;99.90;;;;;;4910275;29;20071;-71
2022/06/09 00:22:47;;;;;;;7.43;1.48;;;14.00;99.90;;;;;;4910084;29;20136;-71
2022/06/09 00:25:14;;;;;;;3.38;1.10;;;13.90;99.90;;;;;;4909631;29;20087;-71
2022/06/09 00:27:41;;;;;;;2.70;1.15;;;13.90;99.90;;;;;;4916443;29;20138;-71
2022/06/09 00:30:10;;;;;;;2.13;0.98;;;13.90;99.90;;;;;;4926372;29;20513;-71
2022/06/09 00:32:37;;;;;;;2.47;0.75;;;13.90;99.90;;;;;;4908611;29;20139;-71
2022/06/09 00:35:04;;;;;;;2.55;0.90;;;13.80;99.90;;;;;;4891461;29;20062;-71
2022/06/09 00:37:31;;;;;;;3.88;1.15;;;13.80;99.90;;;;;;4924430;29;20059;-71
2022/06/09 00:39:59;;;;;;;3.80;1.20;;;13.70;99.90;;;;;;4908626;29;20058;-71
2022/06/09 00:42:26;;;;;;;3.75;1.02;;;13.70;99.90;;;;;;4923626;29;20056;-71
2022/06/09 00:44:53;;;;;;;2.72;1.00;;;13.70;99.90;;;;;;4924415;29;20059;-71
2022/06/09 00:47:30;;;;;;;2.22;1.15;;;13.60;99.90;;;;;;4902545;29;20070;-71
2022/06/09 00:50:23;;;;;;;2.13;1.10;;;13.60;99.90;;;;;;4925567;29;20151;-71
2022/06/09 00:52:52;;;;;;;2.28;0.80;;;13.60;99.90;;;;;;4921762;29;20166;-71
2022/06/09 00:55:20;;;;;;;2.05;0.85;;;13.60;99.90;;;;;;4908325;29;20135;-71
2022/06/09 00:58:03;;;;;;;2.85;0.80;;;13.50;99.90;;;;;;4890567;29;20087;-71
2022/06/09 01:00:34;;;;;;;2.05;0.80;;;13.50;99.90;;;;;;4892813;29;20086;-71
2022/06/09 01:03:01;;;;;;;1.58;0.73;;;13.50;99.90;;;;;;4893037;29;20139;-71
2022/06/09 01:05:30;;;;;;;2.40;0.70;;;13.40;99.90;;;;;;4893218;29;20549;-71
2022/06/09 01:07:59;;;;;;;2.25;0.57;;;13.40;99.90;;;;;;4907634;29;20594;-71
2022/06/09 01:10:29;;;;;;;2.58;0.70;;;13.40;99.90;;;;;;4909694;29;20139;-71
2022/06/09 01:12:57;;;;;;;1.63;0.65;;;13.30;99.90;;;;;;4926308;29;20119;-71
2022/06/09 01:15:37;;;;;;;2.38;0.80;;;13.30;99.90;;;;;;4910955;29;21010;-72
2022/06/09 01:18:08;;;;;;;2.88;0.93;;;13.20;99.90;;;;;;4896841;29;20054;-71
2022/06/09 01:21:01;;;;;;;1.45;0.68;;;13.20;99.90;;;;;;4895792;29;20130;-71
2022/06/09 01:23:44;;;;;;;2.97;0.82;;;13.20;99.90;;;;;;4904054;29;20075;-71
2022/06/09 01:26:11;;;;;;;1.77;0.80;;;13.10;99.90;;;;;;4910791;29;20139;-71
2022/06/09 01:28:44;;;;;;;1.60;0.75;;;13.10;99.90;;;;;;4925323;29;20403;-71
2022/06/09 01:31:28;;;;;;;1.83;0.77;;;13.00;99.90;;;;;;4911024;29;20180;-71
2022/06/09 01:34:00;;;;;;;1.35;0.70;;;13.00;99.90;;;;;;4877822;29;20047;-71
2022/06/09 01:36:47;;;;;;;4.65;1.75;;;13.00;99.90;;;;;;4897524;29;20138;-71
2022/06/09 01:39:14;;;;;;;1.15;0.70;;;13.00;99.90;;;;;;4903361;29;20467;-71
2022/06/09 01:41:48;;;;;;;2.28;0.80;;;13.00;99.90;;;;;;4933240;29;20087;-71
2022/06/09 01:44:17;;;;;;;2.60;1.25;;;12.90;99.90;;;;;;4914495;29;20052;-71
2022/06/09 01:46:44;;;;;;;1.50;0.70;;;12.90;99.90;;;;;;4914753;29;20078;-71
2022/06/09 01:49:19;;;;;;;1.52;0.80;;;12.90;99.90;;;;;;4931807;29;20155;-71
2022/06/09 01:51:45;;;;;;;4.30;1.13;;;12.80;99.90;;;;;;4915446;29;20138;-71
2022/06/09 01:54:38;;;;;;;1.65;0.90;;;12.80;99.90;;;;;;4932230;29;20158;-71
2022/06/09 01:57:07;;;;;;;2.85;0.73;;;12.80;99.90;;;;;;4927742;29;20048;-71
2022/06/09 01:59:55;;;;;;;2.00;0.93;;;12.80;99.90;;;;;;4882250;29;20707;-71
2022/06/09 02:02:34;;;;;;;1.33;0.70;;;12.70;99.90;;;;;;4900902;29;20078;-71
2022/06/09 02:05:25;;;;;;;3.08;0.90;;;12.70;99.90;;;;;;4896141;29;20416;-71
2022/06/09 02:07:53;;;;;;;2.13;0.88;;;12.70;99.90;;;;;;4889217;29;20079;-71
2022/06/09 02:10:40;;;;;;;1.75;0.95;;;12.70;99.90;;;;;;4913981;29;20131;-71
2022/06/09 02:13:16;;;;;;;1.85;0.80;;;12.60;99.90;;;;;;4912718;29;20130;-71
2022/06/09 02:15:47;;;;;;;2.67;1.00;;;12.60;99.90;;;;;;4913857;29;20170;-71
2022/06/09 02:18:17;;;;;;;2.22;0.90;;;12.60;99.90;;;;;;4914853;29;20127;-71
2022/06/09 02:20:49;;;;;;;1.90;0.75;;;12.60;99.90;;;;;;4914348;29;20559;-71
2022/06/09 02:23:15;;;;;;;1.65;0.77;;;12.50;99.90;;;;;;4898427;29;20079;-71
2022/06/09 02:25:42;;;;;;;3.58;0.90;;;12.50;99.90;;;;;;4914187;29;20495;-71
2022/06/09 02:28:10;;;;;;;2.08;0.90;;;12.50;99.90;;;;;;4911732;29;20079;-71
2022/06/09 02:30:38;;;;;;;2.58;1.40;;;12.50;99.90;;;;;;4930142;29;20098;-71
2022/06/09 02:33:20;;;;;;;4.05;1.23;;;12.40;99.90;;;;;;4930480;29;20040;-71
2022/06/09 02:35:50;;;;;;;2.78;0.82;;;12.40;99.90;;;;;;4899388;29;20067;-71
2022/06/09 02:38:17;;;;;;;1.90;0.57;;;12.40;99.90;;;;;;4914263;29;20231;-71
2022/06/09 02:40:44;;;;;;;2.65;0.73;;;12.40;99.90;;;;;;4928178;29;20056;-71
2022/06/09 02:43:11;;;;;;;2.28;0.90;;;12.30;99.90;;;;;;4928248;29;20135;-71
2022/06/09 02:45:38;;;;;;;1.98;0.80;;;12.30;99.90;;;;;;4913042;29;20578;-71
2022/06/09 02:48:05;;;;;;;1.70;0.90;;;12.30;99.90;;;;;;4913494;29;20062;-71
2022/06/09 02:50:32;;;;;;;1.80;0.82;;;12.30;99.90;;;;;;4912324;29;20044;-71
2022/06/09 02:52:59;;;;;;;1.55;0.73;;;12.30;99.90;;;;;;4913611;29;20089;-72
2022/06/09 02:55:27;;;;;;;2.30;0.88;;;12.30;99.90;;;;;;4930787;29;20118;-71
2022/06/09 02:57:53;;;;;;;2.90;1.00;;;12.30;99.90;;;;;;4929489;29;20126;-71
2022/06/09 03:00:20;;;;;;;3.33;1.05;;;12.30;99.90;;;;;;4912577;29;20055;-71
2022/06/09 03:02:51;;;;;;;3.03;0.90;;;12.30;99.90;;;;;;4930667;29;20086;-71
2022/06/09 03:05:18;;;;;;;2.20;0.68;;;12.30;99.90;;;;;;4930425;29;20083;-71
2022/06/09 03:07:45;;;;;;;1.20;0.70;;;12.20;99.90;;;;;;4913313;29;20090;-70
2022/06/09 03:10:11;;;;;;;3.17;1.15;;;12.30;99.90;;;;;;4929591;29;20467;-71
2022/06/09 03:12:38;;;;;;;1.27;0.73;;;12.20;99.90;;;;;;4929526;29;20162;-71
2022/06/09 03:15:08;;;;;;;1.25;0.70;;;12.20;99.90;;;;;;4929344;29;20074;-71
2022/06/09 03:17:35;;;;;;;1.25;0.70;;;12.20;99.90;;;;;;4930217;29;20083;-71
2022/06/09 03:20:03;;;;;;;1.90;0.70;;;12.20;99.90;;;;;;4930069;29;20131;-71
2022/06/09 03:22:30;;;;;;;2.30;0.90;;;12.10;99.90;;;;;;4930110;29;20486;-71
2022/06/09 03:24:57;;;;;;;2.72;1.00;;;12.10;99.90;;;;;;4912881;29;20079;-71
2022/06/09 03:27:24;;;;;;;3.45;1.25;;;12.10;99.90;;;;;;4928798;29;20523;-71
2022/06/09 03:29:51;;;;;;;1.60;0.60;;;12.10;99.90;;;;;;4911823;29;20079;-71
2022/06/09 03:32:18;;;;;;;1.83;0.80;;;12.10;99.90;;;;;;4913039;29;20205;-71
2022/06/09 03:34:44;;;;;;;2.38;0.80;;;12.10;99.90;;;;;;4912418;29;20098;-72
2022/06/09 03:37:11;;;;;;;3.40;1.17;;;12.10;99.90;;;;;;4930553;29;20061;-71
2022/06/09 03:39:38;;;;;;;2.53;0.77;;;12.10;99.90;;;;;;4929750;29;20059;-71
2022/06/09 03:42:05;;;;;;;3.42;0.82;;;12.10;99.90;;;;;;4929590;29;20123;-71
2022/06/09 03:44:31;;;;;;;1.33;0.60;;;12.10;99.90;;;;;;4928516;29;20062;-71
2022/06/09 03:46:58;;;;;;;1.55;0.60;;;12.00;99.90;;;;;;4929715;29;20143;-71
2022/06/09 03:49:25;;;;;;;2.38;0.80;;;12.00;99.90;;;;;;4931721;29;20090;-71
2022/06/09 03:51:52;;;;;;;1.73;0.88;;;12.00;99.90;;;;;;4928476;29;20526;-72
2022/06/09 03:54:19;;;;;;;1.73;0.80;;;12.00;99.90;;;;;;4930060;29;20118;-71
2022/06/09 03:56:48;;;;;;;2.78;0.80;;;12.00;99.90;;;;;;4929630;29;20110;-71
2022/06/09 03:59:14;;;;;;;1.85;0.60;;;12.00;99.90;;;;;;4927124;29;20119;-71
2022/06/09 04:01:42;;;;;;;0.90;0.68;;;12.00;99.90;;;;;;4927927;29;20734;-71
2022/06/09 04:04:09;;;;;;;0.57;0.38;;;12.00;99.90;;;;;;4911257;29;20131;-71
2022/06/09 04:06:35;;;;;;;1.20;0.55;;;12.00;99.90;;;;;;4919478;29;20131;-72
2022/06/09 04:09:03;;;;;;;0.68;0.50;;;12.00;99.90;;;;;;4891532;29;20570;-71
2022/06/09 04:11:29;;;;;;;1.08;0.50;;;12.00;99.90;;;;;;4900624;29;20079;-71
2022/06/09 04:13:56;;;;;;;1.40;0.70;;;12.00;99.90;;;;;;4926336;29;20086;-71
2022/06/09 04:16:25;;;;;;;1.50;0.80;;;12.10;99.90;;;;;;4895863;29;20131;-71
2022/06/09 04:18:52;;;;;;;1.60;0.70;;;12.10;99.90;;;;;;4910213;29;20052;-72
2022/06/09 04:21:20;;;;;;;1.42;0.60;;;12.10;99.90;;;;;;4911179;29;20543;-71
2022/06/09 04:23:46;;;;;;;2.47;0.73;;;12.10;99.90;;;;;;4926785;29;20147;-71
2022/06/09 04:26:18;;;;;;;0.80;0.40;;;12.10;99.90;;;;;;4910698;29;20921;-71
2022/06/09 04:28:45;;;;;;;1.77;0.70;;;12.10;99.90;;;;;;4894351;29;20047;-71
2022/06/09 04:31:12;;;;;;;1.70;0.63;;;12.10;99.90;;;;;;4879878;29;20138;-71
2022/06/09 04:33:39;;;;;;;1.10;0.68;;;12.10;99.90;;;;;;4910999;29;20047;-71
2022/06/09 04:36:06;;;;;;;0.80;0.45;;;12.10;99.90;;;;;;4908778;29;20079;-71
2022/06/09 04:38:33;;;;;;;1.38;0.57;;;12.10;99.90;;;;;;4927344;29;20119;-71
2022/06/09 04:41:01;;;;;;;2.03;0.50;;;12.10;99.90;;;;;;4928638;29;20126;-71
2022/06/09 04:43:27;;;;;;;1.98;0.60;;;12.20;99.90;;;;;;4910034;29;20138;-71
2022/06/09 04:45:54;;;;;;;1.17;0.50;;;12.20;99.90;;;;;;4926612;29;20048;-72
2022/06/09 04:48:21;;;;;;;1.17;0.47;;;12.20;99.90;;;;;;4907714;29;20670;-72
2022/06/09 04:50:48;;;;;;;1.10;0.50;;;12.20;99.90;;;;;;4910061;29;20052;-71
2022/06/09 04:53:15;;;;;;;2.08;0.82;;;12.20;99.90;;;;;;4909195;29;20508;-71
2022/06/09 04:55:43;;;;;;;1.75;0.70;;;12.20;99.90;;;;;;4926236;29;20047;-72
2022/06/09 04:58:10;;;;;;;0.73;0.50;;;12.20;99.90;;;;;;4919786;29;20106;-71
2022/06/09 05:00:37;;;;;;;2.05;0.85;;;12.20;99.90;;;;;;4923401;29;20052;-71
2022/06/09 05:03:04;;;;;;;1.00;0.47;;;12.30;99.90;;;;;;4921750;29;20039;-71
2022/06/09 05:05:32;;;;;;;0.32;0.30;;;12.30;99.90;;;;;;4922044;29;20051;-71
2022/06/09 05:08:00;;;;;;;1.17;0.38;;;12.30;99.90;;;;;;4873579;29;20047;-71
2022/06/09 05:10:27;;;;;;;2.92;0.85;;;12.30;99.90;;;;;;4927606;29;20146;-71
2022/06/09 05:12:54;;;;;;;1.83;0.60;;;12.40;99.90;;;;;;4908172;29;20300;-71
2022/06/09 05:15:21;;;;;;;1.88;0.65;;;12.40;99.90;;;;;;4923824;29;20158;-71
2022/06/09 05:17:49;;;;;;;1.77;0.70;;;12.50;99.90;;;;;;4910963;29;20596;-71
2022/06/09 05:20:17;;;;;;;2.00;0.68;;;12.50;99.90;;;;;;4925279;29;20087;-71
2022/06/09 05:22:44;;;;;;;3.47;0.88;;;12.60;99.90;;;;;;4903896;29;20130;-71
2022/06/09 05:25:11;;;;;;;1.17;0.68;;;12.70;99.90;;;;;;4922193;29;20546;-71
2022/06/09 05:27:37;;;;;;;2.40;1.10;;;12.70;99.90;;;;;;4920369;29;20051;-71
2022/06/09 05:30:05;;;;;;;1.90;0.90;;;12.80;99.90;;;;;;4905897;29;20051;-71
2022/06/09 05:32:32;;;;;;;2.17;0.77;;;12.90;99.90;;;;;;4893639;29;20134;-71
2022/06/09 05:34:59;;;;;;;2.13;0.80;;;12.90;99.90;;;;;;4931292;29;20069;-71
2022/06/09 05:44:50;;;;;;;5.32;1.48;;;13.00;99.90;;;;;;4925726;29;20051;-72
2022/06/09 05:45:43;;;;;;;3.97;1.45;;;13.10;99.90;;;;;;4926988;29;20519;-71
2022/06/09 05:48:10;;;;;;;3.88;1.48;;;13.10;99.90;;;;;;4924117;29;20167;-71
2022/06/09 05:50:37;;;;;;;3.50;1.65;;;13.10;99.90;;;;;;4911403;29;20066;-72
2022/06/09 05:53:03;;;;;;;2.90;1.52;;;13.20;99.90;;;;;;4912831;29;20357;-71
2022/06/09 05:55:31;;;;;;;3.05;1.65;;;13.30;99.90;;;;;;4914456;29;21439;-71
2022/06/09 05:57:57;;;;;;;5.75;2.25;;;13.30;99.90;;;;;;4928065;29;20071;-71
2022/06/09 06:00:24;;;;;;;4.00;1.90;;;13.40;99.90;;;;;;4925546;29;20206;-71
2022/06/09 06:02:51;;;;;;;6.45;2.50;;;13.40;99.90;;;;;;4911239;29;20102;-71
2022/06/09 06:08:03;;;;;;;6.60;1.90;;;13.40;99.90;;;;;;4923576;29;20576;-71
2022/06/09 06:10:30;;;;;;;5.47;2.10;;;13.50;99.90;;;;;;4909563;29;20101;-71
2022/06/09 06:12:57;;;;;;;4.85;1.75;;;13.50;99.90;;;;;;4925714;29;20147;-70
2022/06/09 06:15:24;;;;;;;4.25;1.60;;;13.60;99.90;;;;;;4927755;29;20130;-71
2022/06/09 06:17:53;;;;;;;3.63;1.60;;;13.60;99.90;;;;;;4917191;29;20500;-70
2022/06/09 06:20:21;;;;;;;3.72;1.60;;;13.70;99.90;;;;;;4921976;29;20047;-70
2022/06/09 06:22:47;;;;;;;4.00;1.30;;;13.70;99.90;;;;;;4923927;29;20282;-70
2022/06/09 06:25:14;;;;;;;4.63;1.73;;;13.80;99.90;;;;;;4905891;29;20143;-70
2022/06/09 06:27:42;;;;;;;6.45;2.28;;;13.90;99.90;;;;;;4906764;29;20183;-70
2022/06/09 06:30:11;;;;;;;5.22;1.95;;;13.90;99.90;;;;;;4922094;29;20055;-67
2022/06/09 06:32:38;;;;;;;5.13;1.67;;;14.00;99.90;;;;;;4912314;29;20094;-67
2022/06/09 06:35:06;;;;;;;2.90;1.40;;;14.10;99.90;;;;;;4910165;29;20451;-68
2022/06/09 06:37:36;;;;;;;4.05;2.25;;;14.10;99.90;;;;;;4927577;29;20472;-68
2022/06/09 06:40:03;;;;;;;2.40;1.23;;;14.20;99.90;;;;;;4909957;29;20134;-68
2022/06/09 06:42:30;;;;;;;2.92;1.40;;;14.20;99.90;;;;;;4908870;29;20051;-67
2022/06/09 06:44:57;;;;;;;2.45;1.10;;;14.30;99.90;;;;;;4909082;29;20138;-68
2022/06/09 06:47:24;;;;;;;3.75;1.20;;;14.40;99.90;;;;;;4911035;29;20130;-70
2022/06/09 06:49:51;;;;;;;2.97;1.15;;;14.50;99.90;;;;;;4929873;29;20137;-70
2022/06/09 06:52:17;;;;;;;4.82;1.40;;;14.60;99.90;;;;;;4913156;29;20285;-67
2022/06/09 06:54:44;;;;;;;4.20;1.50;;;14.70;99.90;;;;;;4913055;29;20139;-73
2022/06/09 06:57:11;;;;;;;4.45;1.88;;;14.80;99.90;;;;;;4910744;29;20114;-70
2022/06/09 06:59:38;;;;;;;2.83;1.45;;;14.90;99.90;;;;;;4929110;29;20577;-72
2022/06/09 07:02:04;;;;;;;3.45;1.92;;;15.00;99.90;;;;;;4909729;29;20055;-80
2022/06/09 07:04:31;;;;;;;3.58;1.42;;;15.10;99.90;;;;;;4894324;29;20127;-71
2022/06/09 07:06:59;;;;;;;2.92;1.20;;;15.20;99.90;;;;;;4926887;29;20602;-79
2022/06/09 07:09:26;;;;;;;2.30;1.05;;;15.40;99.90;;;;;;4874759;29;20126;-78
2022/06/09 07:11:53;;;;;;;2.75;1.10;;;15.60;99.90;;;;;;4906853;29;20464;-76
2022/06/09 07:14:20;;;;;;;4.03;1.45;;;15.70;99.90;;;;;;4927494;29;20157;-69
2022/06/09 07:16:46;;;;;;;2.58;1.50;;;15.80;99.90;;;;;;4928052;29;20637;-69
2022/06/09 07:19:15;;;;;;;4.13;1.38;;;16.00;99.90;;;;;;4925059;29;20477;-69
2022/06/09 07:21:42;;;;;;;3.22;1.15;;;16.10;99.90;;;;;;4922733;29;20147;-69
2022/06/09 07:24:10;;;;;;;2.95;1.45;;;16.20;99.90;;;;;;4909427;29;20043;-69
2022/06/09 07:26:37;;;;;;;4.07;1.45;;;16.30;99.90;;;;;;4886433;29;20800;-69
2022/06/09 07:29:04;;;;;;;3.03;1.23;;;16.30;99.90;;;;;;4923748;29;20114;-69
2022/06/09 07:31:31;;;;;;;2.78;1.50;;;16.30;99.90;;;;;;4892326;29;20267;-69
2022/06/09 07:33:57;;;;;;;5.38;1.70;;;16.30;99.90;;;;;;4875772;29;20067;-70
2022/06/09 07:36:25;;;;;;;3.72;1.50;;;16.30;99.90;;;;;;4905836;29;20463;-69
2022/06/09 07:38:51;;;;;;;5.32;1.65;;;16.20;99.90;;;;;;4885217;29;20585;-75
2022/06/09 07:41:20;;;;;;;3.78;1.85;;;16.30;99.90;;;;;;4925637;29;20061;-78
2022/06/09 07:43:57;;;;;;;3.53;1.30;;;16.20;99.90;;;;;;4923320;29;20445;-68
2022/06/09 07:46:23;;;;;;;4.03;1.52;;;16.20;99.90;;;;;;4893492;29;20052;-70
2022/06/09 07:48:52;;;;;;;3.72;1.23;;;16.20;99.90;;;;;;4910364;29;20131;-69
2022/06/09 07:51:18;;;;;;;5.35;1.42;;;16.20;99.90;;;;;;4926911;29;20083;-67
2022/06/09 07:53:45;;;;;;;3.20;1.33;;;16.20;99.90;;;;;;4927873;29;20544;-69
2022/06/09 07:56:12;;;;;;;4.70;1.27;;;16.30;99.90;;;;;;4912054;29;20138;-68
2022/06/09 07:58:39;;;;;;;3.20;1.17;;;16.30;99.90;;;;;;4927621;29;20048;-69
2022/06/09 08:01:05;;;;;;;4.53;1.60;;;16.20;99.90;;;;;;4912351;29;20165;-68
2022/06/09 08:03:32;;;;;;;3.95;1.13;;;16.30;99.90;;;;;;4926538;29;20169;-68
2022/06/09 08:05:59;;;;;;;4.63;2.15;;;16.30;99.90;;;;;;4926183;29;20060;-69
2022/06/09 08:08:46;;;;;;;3.55;1.23;;;16.40;99.90;;;;;;4927079;29;20472;-73
2022/06/09 08:11:13;;;;;;;5.57;1.75;;;16.40;99.90;;;;;;4894722;29;20591;-69
2022/06/09 08:13:39;;;;;;;2.78;1.15;;;16.40;99.90;;;;;;4908382;29;20158;-69
2022/06/09 08:16:06;;;;;;;5.13;1.52;;;16.40;99.90;;;;;;4911885;29;20468;-68
2022/06/09 08:18:33;;;;;;;3.22;1.30;;;16.40;99.90;;;;;;4906584;29;20510;-68
2022/06/09 08:21:00;;;;;;;2.85;1.00;;;16.40;99.90;;;;;;4902027;29;20048;-69
2022/06/09 08:23:44;;;;;;;2.78;1.15;;;16.40;99.90;;;;;;4907767;29;20299;-68
2022/06/09 08:26:11;;;;;;;1.88;1.00;;;16.50;99.90;;;;;;4925259;29;20126;-69
2022/06/09 08:28:38;;;;;;;1.98;1.00;;;16.60;99.90;;;;;;4924367;29;20147;-68
2022/06/09 08:31:04;;;;;;;3.10;1.23;;;16.50;99.90;;;;;;4928635;29;20090;-68
2022/06/09 08:33:31;;;;;;;2.95;0.98;;;16.60;99.90;;;;;;4927643;29;20517;-68
2022/06/09 08:35:58;;;;;;;4.40;1.80;;;16.60;99.90;;;;;;4896298;29;20091;-77
2022/06/09 08:38:25;;;;;;;2.65;1.00;;;16.70;99.90;;;;;;4911130;29;20150;-69
2022/06/09 08:41:21;;;;;;;1.95;1.00;;;16.70;99.90;;;;;;4928936;29;20095;-72
2022/06/09 08:44:34;;;;;;;3.20;1.20;;;16.70;99.90;;;;;;4912761;29;20091;-69
2022/06/09 08:47:25;;;;;;;2.50;1.03;;;16.80;99.90;;;;;;4838923;29;20053;-68
2022/06/09 08:50:04;;;;;;;1.75;1.08;;;16.80;99.90;;;;;;4906991;29;20082;-68
2022/06/09 08:52:48;;;;;;;2.50;0.80;;;17.00;99.90;;;;;;4924624;29;20056;-74
2022/06/09 08:55:17;;;;;;;1.92;0.80;;;17.10;99.90;;;;;;4908549;29;20048;-76
2022/06/09 08:57:44;;;;;;;2.97;1.00;;;17.20;99.90;;;;;;4891879;29;20060;-70
2022/06/09 09:00:14;;;;;;;2.88;1.00;;;17.20;99.90;;;;;;4910968;29;20244;-76
2022/06/09 09:02:44;;;;;;;1.15;0.57;;;17.30;99.90;;;;;;4910378;29;20074;-74
2022/06/09 09:05:26;;;;;;;2.13;0.90;;;17.40;99.90;;;;;;4911109;29;20083;-73
2022/06/09 09:08:04;;;;;;;1.98;0.90;;;17.60;99.90;;;;;;4912190;29;20459;-68
2022/06/09 09:11:05;;;;;;;2.75;0.80;;;17.80;99.90;;;;;;4896156;29;20051;-68
2022/06/09 09:14:02;;;;;;;2.33;0.80;;;18.20;99.90;;;;;;4845405;29;20503;-68
2022/06/09 09:16:54;;;;;;;1.45;0.70;;;18.50;99.90;;;;;;4910093;29;20499;-68
2022/06/09 09:19:53;;;;;;;1.75;0.77;;;18.70;99.90;;;;;;4923926;29;20103;-69
2022/06/09 09:23:09;;;;;;;3.20;1.20;;;18.90;99.90;;;;;;4875719;29;20084;-68
2022/06/09 09:25:50;;;;;;;2.58;0.95;;;18.80;99.90;;;;;;4902967;29;20127;-68
2022/06/09 09:28:21;;;;;;;2.85;1.20;;;18.80;99.90;;;;;;4905031;29;20139;-69
2022/06/09 09:30:57;;;;;;;1.60;0.75;;;18.90;99.90;;;;;;4908060;29;20351;-70
2022/06/09 09:33:24;;;;;;;2.92;0.90;;;19.00;99.90;;;;;;4923443;29;20440;-67
2022/06/09 09:35:54;;;;;;;2.13;1.10;;;19.00;99.90;;;;;;4910765;29;20372;-68
2022/06/09 09:38:21;;;;;;;2.47;0.90;;;19.20;99.90;;;;;;4911306;29;20051;-72
2022/06/09 09:40:49;;;;;;;2.80;1.10;;;19.20;99.90;;;;;;4911150;29;20470;-67
2022/06/09 09:43:25;;;;;;;2.67;0.95;;;19.40;99.90;;;;;;4904730;29;20072;-67
2022/06/09 09:45:55;;;;;;;2.65;1.10;;;19.50;99.90;;;;;;4909712;29;20058;-68
2022/06/09 09:48:23;;;;;;;2.83;1.13;;;19.60;99.90;;;;;;4896625;29;20141;-76
2022/06/09 09:51:06;;;;;;;1.60;0.75;;;19.80;99.90;;;;;;4923186;29;20058;-68
2022/06/09 09:53:38;;;;;;;2.13;1.10;;;20.20;99.90;;;;;;4904236;29;20155;-68
2022/06/09 09:56:18;;;;;;;1.67;0.80;;;20.20;99.90;;;;;;4920071;29;20044;-67
2022/06/09 09:58:48;;;;;;;1.85;0.73;;;20.30;99.90;;;;;;4920056;29;20299;-68
2022/06/09 10:01:17;;;;;;;1.27;0.70;;;20.40;99.90;;;;;;4921574;29;20174;-67
2022/06/09 10:09:47;;;;;;;2.53;0.82;;;20.60;99.90;;;;;;4912276;29;20083;-67
2022/06/09 10:12:33;;;;;;;1.13;0.77;;;20.60;99.90;;;;;;4911047;29;20203;-67
2022/06/09 10:15:18;;;;;;;1.95;0.80;;;20.70;99.90;;;;;;4899824;29;20046;-67
2022/06/09 10:18:26;;;;;;;1.70;0.85;;;20.70;99.90;;;;;;4902408;29;20501;-86
2022/06/09 10:21:13;;;;;;;2.45;0.80;;;20.80;99.90;;;;;;4931161;29;20494;-86
2022/06/09 10:23:51;;;;;;;2.83;0.90;;;20.90;99.90;;;;;;4911775;29;20131;-68
2022/06/09 10:26:31;;;;;;;2.35;0.90;;;21.10;99.40;;;;;;4910835;29;20559;-67
2022/06/09 10:29:06;;;;;;;1.85;0.85;;;21.10;99.40;;;;;;4908643;29;20119;-74
2022/06/09 10:31:57;;;;;;;2.15;0.98;;;21.30;99.40;;;;;;4928508;29;20435;-69
2022/06/09 10:34:55;;;;;;;1.88;0.80;;;21.30;99.20;;;;;;4907895;29;20047;-68
2022/06/09 10:37:27;;;;;;;1.98;0.77;;;21.30;99.80;;;;;;4911598;29;20176;-67
2022/06/09 10:40:28;;;;;;;1.65;0.75;;;21.30;98.10;;;;;;4896200;29;20543;-68
2022/06/09 10:43:05;;;;;;;2.63;1.08;;;21.40;99.40;;;;;;4894392;29;20115;-76
2022/06/09 10:45:46;;;;;;;1.90;0.68;;;21.60;99.30;;;;;;4893650;29;20055;-68
2022/06/09 10:55:14;;;;;;;2.20;1.00;;;21.30;99.00;;;;;;4897546;29;20087;-67
2022/06/09 10:58:26;;;;;;;3.35;1.30;;;21.20;98.40;;;;;;4908889;29;20107;-67
2022/06/09 11:00:52;;;;;;;3.95;1.48;;;21.10;98.00;;;;;;4925067;29;20051;-75
2022/06/09 11:03:22;;;;;;;3.05;1.25;;;21.10;98.30;;;;;;4908682;29;20218;-67
2022/06/09 11:06:03;;;;;;;3.00;1.17;;;21.20;98.30;;;;;;4894485;29;20136;-67
2022/06/09 11:08:53;;;;;;;3.00;1.23;;;21.30;98.00;;;;;;4909506;29;20143;-68
2022/06/09 11:11:57;;;;;;;3.00;0.88;;;21.30;97.90;;;;;;4925511;28;20059;-70
2022/06/09 11:14:49;;;;;;;4.32;1.52;;;21.50;98.10;;;;;;4893311;29;20074;-74
2022/06/09 11:17:16;;;;;;;2.10;0.90;;;21.40;98.80;;;;;;4921507;29;20130;-73
2022/06/09 11:20:24;;;;;;;3.13;1.00;;;21.50;98.40;;;;;;4924018;29;20147;-70
2022/06/09 11:23:02;;;;;;;2.45;0.93;;;21.30;98.20;;;;;;4894237;29;20537;-68
2022/06/09 11:25:44;;;;;;;3.03;1.20;;;21.00;97.60;;;;;;4908849;29;20490;-67
2022/06/09 11:28:14;;;;;;;2.42;1.13;;;20.90;98.30;;;;;;4900828;29;20090;-68
2022/06/09 11:30:47;;;;;;;2.25;0.90;;;20.90;98.10;;;;;;4926077;29;20412;-67
2022/06/09 11:33:45;;;;;;;2.05;1.15;;;20.90;98.60;;;;;;4924664;29;20139;-67
2022/06/09 11:36:18;;;;;;;2.28;0.80;;;20.90;98.80;;;;;;4920972;29;20048;-67
2022/06/09 11:38:54;;;;;;;1.75;0.80;;;20.90;98.60;;;;;;4924077;29;20051;-68
2022/06/09 11:41:45;;;;;;;1.48;0.80;;;20.80;98.60;;;;;;4907731;29;20131;-67
2022/06/09 11:44:20;;;;;;;2.05;0.77;;;20.70;99.10;;;;;;4906693;29;20416;-67
2022/06/09 11:46:49;;;;;;;1.60;0.70;;;20.70;98.70;;;;;;4921051;29;20079;-67
2022/06/09 11:49:20;;;;;;;3.33;1.15;;;20.70;98.40;;;;;;4889426;29;20416;-67
2022/06/09 11:51:47;;;;;;;2.00;1.00;;;20.80;98.30;;;;;;4889868;29;20056;-68
2022/06/09 11:54:52;;;;;;;2.10;0.85;;;20.90;97.10;;;;;;4905172;29;20059;-67
2022/06/09 11:57:31;;;;;;;2.22;0.90;;;21.00;97.60;;;;;;4821000;29;20646;-67
2022/06/09 12:00:00;;;;;;;2.40;0.88;;;21.10;97.80;;;;;;4833622;29;20065;-68
2022/06/09 12:02:29;;;;;;;1.83;0.68;;;21.30;98.80;;;;;;4888761;29;20063;-67
2022/06/09 12:05:37;;;;;;;1.23;0.73;;;21.50;99.80;;;;;;4902738;29;20052;-68
2022/06/09 12:08:25;;;;;;;1.52;0.70;;;21.90;99.90;;;;;;4911947;29;20140;-67
2022/06/09 12:11:11;;;;;;;1.17;0.68;;;22.00;99.10;;;;;;4900399;29;20082;-68
2022/06/09 12:14:09;;;;;;;2.70;0.88;;;22.20;98.40;;;;;;4917584;29;20151;-68
2022/06/09 12:16:57;;;;;;;3.10;1.00;;;21.90;97.40;;;;;;4903893;29;20056;-69
2022/06/09 12:19:32;;;;;;;2.13;0.90;;;21.80;97.00;;;;;;4917111;29;20135;-72
2022/06/09 12:22:19;;;;;;;2.72;1.50;;;21.60;97.80;;;;;;4908864;29;20464;-68
2022/06/09 12:25:14;;;;;;;2.95;0.80;;;21.40;97.90;;;;;;4910798;29;20425;-70
2022/06/09 12:27:48;;;;;;;2.65;0.90;;;21.40;98.60;;;;;;4894344;29;20080;-71
2022/06/09 12:30:15;;;;;;;1.40;0.70;;;21.40;98.80;;;;;;4898782;29;20083;-67
2022/06/09 12:32:43;;;;;;;1.75;0.68;;;21.30;98.70;;;;;;4923945;29;20443;-66
2022/06/09 12:35:21;;;;;;;3.17;1.00;;;21.30;99.20;;;;;;4890725;29;20048;-67
2022/06/09 12:37:52;;;;;;;1.60;0.80;;;21.40;99.10;;;;;;4924786;29;20583;-67
2022/06/09 12:40:22;;;;;;;0.90;0.50;;;21.40;98.40;;;;;;4907903;29;20060;-67
2022/06/09 12:42:48;;;;;;;1.98;0.68;;;21.50;97.80;;;;;;4923733;29;20098;-67
2022/06/09 12:45:24;;;;;;;2.63;0.80;;;21.60;97.90;;;;;;4923665;29;20070;-83
2022/06/09 12:47:52;;;;;;;1.38;0.60;;;22.10;98.60;;;;;;4874781;29;20292;-67
2022/06/09 12:50:41;;;;;;;1.20;0.80;;;22.50;96.80;;;;;;4920808;29;20043;-72
2022/06/09 12:53:17;;;;;;;1.98;0.80;;;22.90;95.30;;;;;;4900816;29;20057;-67
2022/06/09 12:55:51;;;;;;;0.95;0.60;;;23.00;93.90;;;;;;4893083;29;20135;-68
2022/06/09 12:58:42;;;;;;;1.52;0.68;;;23.30;93.70;;;;;;4903661;29;20082;-67
2022/06/09 13:01:17;;;;;;;1.98;0.60;;;23.10;93.40;;;;;;4904414;29;20047;-67
2022/06/09 13:03:49;;;;;;;1.63;0.68;;;22.90;92.80;;;;;;4898124;29;20119;-71
2022/06/09 13:06:38;;;;;;;2.60;0.80;;;22.80;93.80;;;;;;4912389;29;20087;-71
2022/06/09 13:09:28;;;;;;;1.77;0.68;;;22.80;95.10;;;;;;4889060;29;20151;-74
2022/06/09 13:14:49;;;;;;;1.75;0.70;;;23.60;96.10;;;;;;4910079;29;20453;-71
2022/06/09 13:17:21;;;;;;;1.45;0.80;;;23.40;96.00;;;;;;4907925;29;20146;-67
2022/06/09 13:20:02;;;;;;;3.47;0.88;;;23.50;95.50;;;;;;4907316;29;20083;-69
2022/06/09 13:22:30;;;;;;;1.92;0.70;;;23.60;94.80;;;;;;4909022;29;20450;-73
2022/06/09 13:24:57;;;;;;;1.77;0.68;;;23.30;94.70;;;;;;4908330;29;20097;-72
2022/06/09 13:27:26;;;;;;;1.42;0.47;;;23.00;95.50;;;;;;4906163;29;20143;-69
2022/06/09 13:29:58;;;;;;;1.38;0.73;;;22.90;96.30;;;;;;4907245;29;20056;-84
2022/06/09 13:32:44;;;;;;;2.43;0.90;;;22.60;96.80;;;;;;4889769;29;20544;-67
2022/06/09 13:35:35;;;;;;;1.67;0.70;;;22.30;96.90;;;;;;4908201;29;20345;-72
2022/06/09 13:38:20;;;;;;;3.58;1.45;;;22.20;96.90;;;;;;4928680;29;20083;-68
2022/06/09 13:40:50;;;;;;;1.67;0.82;;;22.60;96.90;;;;;;4928805;29;20077;-68